sensor_id;sensor_type;location;lat;lon;timestamp;pressure;altitude;pressure_sealevel;temperature;humidity
81155;BME280;70631;50.436;7.826;2023-07-09T00:00:48;99384.19;;;21.46;70.68
81155;BME280;70631;50.436;7.826;2023-07-09T00:03:14;99382.94;;;21.42;70.14
81155;BME280;70631;50.436;7.826;2023-07-09T00:05:40;99376.25;;;21.38;70.41
81155;BME280;70631;50.436;7.826;2023-07-09T00:08:05;99376.06;;;21.32;70.57
81155;BME280;70631;50.436;7.826;2023-07-09T00:10:31;99381.28;;;21.27;70.63
81155;BME280;70631;50.436;7.826;2023-07-09T00:12:56;99374.56;;;21.23;70.50
81155;BME280;70631;50.436;7.826;2023-07-09T00:15:21;99377.88;;;21.19;70.78
81155;BME280;70631;50.436;7.826;2023-07-09T00:17:47;99382.28;;;21.13;71.10
81155;BME280;70631;50.436;7.826;2023-07-09T00:20:15;99382.47;;;21.05;71.53
81155;BME280;70631;50.436;7.826;2023-07-09T00:22:42;99388.94;;;21.04;71.28
81155;BME280;70631;50.436;7.826;2023-07-09T00:25:13;99389.13;;;20.96;71.45
81155;BME280;70631;50.436;7.826;2023-07-09T00:27:42;99394.94;;;20.93;71.24
81155;BME280;70631;50.436;7.826;2023-07-09T00:30:15;99398.66;;;20.79;71.50
81155;BME280;70631;50.436;7.826;2023-07-09T00:32:40;99396.16;;;20.77;72.10
81155;BME280;70631;50.436;7.826;2023-07-09T00:35:09;99394.50;;;20.76;72.20
81155;BME280;70631;50.436;7.826;2023-07-09T00:37:35;99401.16;;;20.73;72.16
81155;BME280;70631;50.436;7.826;2023-07-09T00:40:00;99401.97;;;20.74;72.51
81155;BME280;70631;50.436;7.826;2023-07-09T00:42:25;99403.66;;;20.75;72.08
81155;BME280;70631;50.436;7.826;2023-07-09T00:44:52;99398.22;;;20.75;71.87
81155;BME280;70631;50.436;7.826;2023-07-09T00:47:22;99404.91;;;20.72;71.95
81155;BME280;70631;50.436;7.826;2023-07-09T00:50:04;99399.06;;;20.69;71.54
81155;BME280;70631;50.436;7.826;2023-07-09T00:52:51;99398.84;;;20.64;71.67
81155;BME280;70631;50.436;7.826;2023-07-09T00:55:24;99396.97;;;20.64;72.08
81155;BME280;70631;50.436;7.826;2023-07-09T00:57:51;99408.56;;;20.45;71.29
81155;BME280;70631;50.436;7.826;2023-07-09T01:00:24;99403.59;;;20.55;72.02
81155;BME280;70631;50.436;7.826;2023-07-09T01:02:50;99398.38;;;20.54;72.13
81155;BME280;70631;50.436;7.826;2023-07-09T01:05:16;99409.59;;;20.51;72.48
81155;BME280;70631;50.436;7.826;2023-07-09T01:07:42;99402.72;;;20.48;72.09
81155;BME280;70631;50.436;7.826;2023-07-09T01:10:11;99404.81;;;20.46;72.40
81155;BME280;70631;50.436;7.826;2023-07-09T01:12:36;99406.25;;;20.42;71.63
81155;BME280;70631;50.436;7.826;2023-07-09T01:15:02;99405.97;;;20.37;71.97
81155;BME280;70631;50.436;7.826;2023-07-09T01:17:29;99405.53;;;20.33;72.19
81155;BME280;70631;50.436;7.826;2023-07-09T01:19:55;99413.84;;;20.32;72.11
81155;BME280;70631;50.436;7.826;2023-07-09T01:22:22;99408.66;;;20.30;72.42
81155;BME280;70631;50.436;7.826;2023-07-09T01:24:54;99410.09;;;20.26;72.18
81155;BME280;70631;50.436;7.826;2023-07-09T01:27:30;99412.38;;;20.23;72.37
81155;BME280;70631;50.436;7.826;2023-07-09T01:29:57;99408.63;;;20.24;72.71
81155;BME280;70631;50.436;7.826;2023-07-09T01:32:22;99413.41;;;20.22;73.02
81155;BME280;70631;50.436;7.826;2023-07-09T01:34:50;99404.66;;;20.20;73.05
81155;BME280;70631;50.436;7.826;2023-07-09T01:37:22;99401.69;;;20.14;72.73
81155;BME280;70631;50.436;7.826;2023-07-09T01:39:49;99409.81;;;20.14;72.53
81155;BME280;70631;50.436;7.826;2023-07-09T01:42:17;99409.59;;;20.09;72.58
81155;BME280;70631;50.436;7.826;2023-07-09T01:44:44;99411.66;;;20.07;72.82
81155;BME280;70631;50.436;7.826;2023-07-09T01:47:11;99411.63;;;20.01;73.04
81155;BME280;70631;50.436;7.826;2023-07-09T01:49:36;99409.13;;;19.99;73.50
81155;BME280;70631;50.436;7.826;2023-07-09T01:52:02;99414.53;;;19.99;73.49
81155;BME280;70631;50.436;7.826;2023-07-09T01:54:31;99419.66;;;19.94;73.24
81155;BME280;70631;50.436;7.826;2023-07-09T01:57:16;99410.69;;;19.87;72.79
81155;BME280;70631;50.436;7.826;2023-07-09T01:59:44;99414.66;;;19.91;73.46
81155;BME280;70631;50.436;7.826;2023-07-09T02:02:10;99422.97;;;19.90;73.86
81155;BME280;70631;50.436;7.826;2023-07-09T02:04:47;99424.84;;;19.89;73.05
81155;BME280;70631;50.436;7.826;2023-07-09T02:07:14;99416.28;;;19.86;73.52
81155;BME280;70631;50.436;7.826;2023-07-09T02:09:39;99426.28;;;19.85;73.86
81155;BME280;70631;50.436;7.826;2023-07-09T02:12:05;99428.78;;;19.87;73.60
81155;BME280;70631;50.436;7.826;2023-07-09T02:14:31;99424.41;;;19.86;73.87
81155;BME280;70631;50.436;7.826;2023-07-09T02:16:56;99431.06;;;19.83;73.28
81155;BME280;70631;50.436;7.826;2023-07-09T02:19:22;99426.69;;;19.82;73.42
81155;BME280;70631;50.436;7.826;2023-07-09T02:21:47;99423.53;;;19.78;73.28
81155;BME280;70631;50.436;7.826;2023-07-09T02:24:12;99428.50;;;19.75;73.25
81155;BME280;70631;50.436;7.826;2023-07-09T02:26:37;99429.06;;;19.70;73.08
81155;BME280;70631;50.436;7.826;2023-07-09T02:29:03;99431.34;;;19.67;73.47
81155;BME280;70631;50.436;7.826;2023-07-09T02:31:28;99433.41;;;19.65;73.28
81155;BME280;70631;50.436;7.826;2023-07-09T02:33:56;99428.41;;;19.62;73.02
81155;BME280;70631;50.436;7.826;2023-07-09T02:36:21;99433.56;;;19.57;73.21
81155;BME280;70631;50.436;7.826;2023-07-09T02:38:46;99440.19;;;19.54;73.13
81155;BME280;70631;50.436;7.826;2023-07-09T02:41:12;99438.03;;;19.49;73.75
81155;BME280;70631;50.436;7.826;2023-07-09T02:43:37;99448.19;;;19.47;73.21
81155;BME280;70631;50.436;7.826;2023-07-09T02:46:02;99446.53;;;19.46;73.58
81155;BME280;70631;50.436;7.826;2023-07-09T02:48:28;99443.19;;;19.44;73.13
81155;BME280;70631;50.436;7.826;2023-07-09T02:50:53;99445.63;;;19.39;73.89
81155;BME280;70631;50.436;7.826;2023-07-09T02:53:18;99441.22;;;19.32;74.01
81155;BME280;70631;50.436;7.826;2023-07-09T02:55:43;99444.03;;;19.23;74.42
81155;BME280;70631;50.436;7.826;2023-07-09T02:58:09;99443.78;;;19.18;74.23
81155;BME280;70631;50.436;7.826;2023-07-09T03:00:34;99448.28;;;19.11;74.29
81155;BME280;70631;50.436;7.826;2023-07-09T03:02:59;99450.34;;;19.09;74.45
81155;BME280;70631;50.436;7.826;2023-07-09T03:05:25;99447.44;;;19.11;74.15
81155;BME280;70631;50.436;7.826;2023-07-09T03:07:50;99449.13;;;19.12;73.94
81155;BME280;70631;50.436;7.826;2023-07-09T03:10:16;99458.25;;;19.11;73.79
81155;BME280;70631;50.436;7.826;2023-07-09T03:12:41;99449.13;;;19.12;73.98
81155;BME280;70631;50.436;7.826;2023-07-09T03:15:06;99454.53;;;19.12;73.68
81155;BME280;70631;50.436;7.826;2023-07-09T03:17:32;99454.72;;;19.10;73.68
81155;BME280;70631;50.436;7.826;2023-07-09T03:19:57;99457.78;;;19.07;74.32
81155;BME280;70631;50.436;7.826;2023-07-09T03:22:22;99465.03;;;19.07;74.09
81155;BME280;70631;50.436;7.826;2023-07-09T03:24:48;99461.88;;;19.03;74.36
81155;BME280;70631;50.436;7.826;2023-07-09T03:27:13;99456.50;;;19.03;73.73
81155;BME280;70631;50.436;7.826;2023-07-09T03:29:38;99452.31;;;19.01;73.79
81155;BME280;70631;50.436;7.826;2023-07-09T03:32:04;99460.41;;;19.01;73.69
81155;BME280;70631;50.436;7.826;2023-07-09T03:34:29;99458.53;;;19.01;73.54
81155;BME280;70631;50.436;7.826;2023-07-09T03:36:54;99457.72;;;19.01;73.60
81155;BME280;70631;50.436;7.826;2023-07-09T03:39:19;99461.44;;;19.00;73.76
81155;BME280;70631;50.436;7.826;2023-07-09T03:41:45;99459.38;;;19.02;73.56
81155;BME280;70631;50.436;7.826;2023-07-09T03:44:10;99462.91;;;19.02;73.50
81155;BME280;70631;50.436;7.826;2023-07-09T03:46:35;99469.16;;;19.03;73.68
81155;BME280;70631;50.436;7.826;2023-07-09T03:49:00;99465.81;;;19.01;73.98
81155;BME280;70631;50.436;7.826;2023-07-09T03:51:26;99466.44;;;19.03;73.85
81155;BME280;70631;50.436;7.826;2023-07-09T03:53:51;99474.38;;;19.04;74.10
81155;BME280;70631;50.436;7.826;2023-07-09T03:56:17;99474.38;;;19.04;73.92
81155;BME280;70631;50.436;7.826;2023-07-09T03:58:42;99482.28;;;19.06;73.78
81155;BME280;70631;50.436;7.826;2023-07-09T04:01:07;99484.97;;;19.06;73.76
81155;BME280;70631;50.436;7.826;2023-07-09T04:03:32;99477.25;;;19.03;73.60
81155;BME280;70631;50.436;7.826;2023-07-09T04:05:59;99481.25;;;19.07;73.87
81155;BME280;70631;50.436;7.826;2023-07-09T04:08:24;99480.22;;;19.08;74.14
81155;BME280;70631;50.436;7.826;2023-07-09T04:10:53;99479.84;;;19.11;74.04
81155;BME280;70631;50.436;7.826;2023-07-09T04:13:18;99488.88;;;19.18;74.02
81155;BME280;70631;50.436;7.826;2023-07-09T04:15:43;99489.13;;;19.23;73.85
81155;BME280;70631;50.436;7.826;2023-07-09T04:18:09;99486.03;;;19.26;73.25
81155;BME280;70631;50.436;7.826;2023-07-09T04:20:34;99498.13;;;19.30;73.40
81155;BME280;70631;50.436;7.826;2023-07-09T04:23:00;99493.00;;;19.35;73.14
81155;BME280;70631;50.436;7.826;2023-07-09T04:25:25;99487.41;;;19.37;73.16
81155;BME280;70631;50.436;7.826;2023-07-09T04:27:50;99489.72;;;19.40;73.25
81155;BME280;70631;50.436;7.826;2023-07-09T04:30:16;99492.03;;;19.43;72.80
81155;BME280;70631;50.436;7.826;2023-07-09T04:32:44;99486.22;;;19.46;72.53
81155;BME280;70631;50.436;7.826;2023-07-09T04:35:11;99489.38;;;19.49;72.55
81155;BME280;70631;50.436;7.826;2023-07-09T04:37:37;99495.09;;;19.55;72.39
81155;BME280;70631;50.436;7.826;2023-07-09T04:40:04;99484.28;;;19.55;72.46
81155;BME280;70631;50.436;7.826;2023-07-09T04:42:31;99485.94;;;19.56;72.27
81155;BME280;70631;50.436;7.826;2023-07-09T04:44:57;99489.94;;;19.60;72.16
81155;BME280;70631;50.436;7.826;2023-07-09T04:47:22;99489.09;;;19.59;72.18
81155;BME280;70631;50.436;7.826;2023-07-09T04:49:47;99490.13;;;19.58;72.52
81155;BME280;70631;50.436;7.826;2023-07-09T04:52:12;99490.81;;;19.67;72.34
81155;BME280;70631;50.436;7.826;2023-07-09T04:54:40;99488.00;;;19.75;72.10
81155;BME280;70631;50.436;7.826;2023-07-09T04:57:08;99487.66;;;19.84;71.74
81155;BME280;70631;50.436;7.826;2023-07-09T04:59:33;99487.03;;;19.89;71.74
81155;BME280;70631;50.436;7.826;2023-07-09T05:01:59;99488.97;;;19.95;71.74
81155;BME280;70631;50.436;7.826;2023-07-09T05:04:24;99488.19;;;20.01;71.60
81155;BME280;70631;50.436;7.826;2023-07-09T05:06:49;99486.75;;;20.05;71.17
81155;BME280;70631;50.436;7.826;2023-07-09T05:09:15;99491.78;;;20.08;70.99
81155;BME280;70631;50.436;7.826;2023-07-09T05:11:40;99480.16;;;20.14;70.54
81155;BME280;70631;50.436;7.826;2023-07-09T05:14:05;99488.34;;;20.21;70.45
81155;BME280;70631;50.436;7.826;2023-07-09T05:16:30;99492.06;;;20.48;69.53
81155;BME280;70631;50.436;7.826;2023-07-09T05:18:56;99479.31;;;22.10;65.93
81155;BME280;70631;50.436;7.826;2023-07-09T05:21:21;99474.53;;;23.85;62.08
81155;BME280;70631;50.436;7.826;2023-07-09T05:23:46;99478.38;;;25.30;58.75
81155;BME280;70631;50.436;7.826;2023-07-09T05:26:11;99471.56;;;26.51;55.77
81155;BME280;70631;50.436;7.826;2023-07-09T05:28:37;99469.84;;;27.59;54.02
81155;BME280;70631;50.436;7.826;2023-07-09T05:31:04;99476.34;;;28.58;51.48
81155;BME280;70631;50.436;7.826;2023-07-09T05:33:29;99467.00;;;29.47;49.32
81155;BME280;70631;50.436;7.826;2023-07-09T05:35:54;99466.00;;;30.27;46.59
81155;BME280;70631;50.436;7.826;2023-07-09T05:38:21;99463.06;;;30.96;45.23
81155;BME280;70631;50.436;7.826;2023-07-09T05:40:46;99473.13;;;31.53;43.73
81155;BME280;70631;50.436;7.826;2023-07-09T05:43:11;99473.41;;;32.08;42.11
81155;BME280;70631;50.436;7.826;2023-07-09T05:45:40;99481.34;;;32.60;41.56
81155;BME280;70631;50.436;7.826;2023-07-09T05:48:05;99474.47;;;33.17;39.64
81155;BME280;70631;50.436;7.826;2023-07-09T05:50:33;99480.78;;;33.72;38.92
81155;BME280;70631;50.436;7.826;2023-07-09T05:52:59;99477.88;;;34.21;37.72
81155;BME280;70631;50.436;7.826;2023-07-09T05:55:24;99481.56;;;34.65;37.26
81155;BME280;70631;50.436;7.826;2023-07-09T05:57:50;99477.56;;;35.00;36.32
81155;BME280;70631;50.436;7.826;2023-07-09T06:00:15;99480.63;;;35.41;36.50
81155;BME280;70631;50.436;7.826;2023-07-09T06:02:41;99481.56;;;35.88;35.13
81155;BME280;70631;50.436;7.826;2023-07-09T06:05:06;99484.44;;;36.29;34.40
81155;BME280;70631;50.436;7.826;2023-07-09T06:07:34;99486.53;;;36.64;33.40
81155;BME280;70631;50.436;7.826;2023-07-09T06:09:59;99483.69;;;36.97;32.91
81155;BME280;70631;50.436;7.826;2023-07-09T06:12:25;99488.69;;;37.09;32.90
81155;BME280;70631;50.436;7.826;2023-07-09T06:14:50;99488.19;;;37.34;33.05
81155;BME280;70631;50.436;7.826;2023-07-09T06:17:16;99488.34;;;37.74;31.78
81155;BME280;70631;50.436;7.826;2023-07-09T06:19:41;99492.38;;;38.12;31.39
81155;BME280;70631;50.436;7.826;2023-07-09T06:22:06;99484.09;;;38.52;30.47
81155;BME280;70631;50.436;7.826;2023-07-09T06:24:32;99487.16;;;38.73;30.10
81155;BME280;70631;50.436;7.826;2023-07-09T06:26:57;99485.72;;;38.93;29.73
81155;BME280;70631;50.436;7.826;2023-07-09T06:29:24;99491.88;;;39.21;29.24
81155;BME280;70631;50.436;7.826;2023-07-09T06:31:49;99489.00;;;39.52;29.32
81155;BME280;70631;50.436;7.826;2023-07-09T06:34:14;99488.13;;;39.86;27.88
81155;BME280;70631;50.436;7.826;2023-07-09T06:36:40;99498.28;;;39.90;28.55
81155;BME280;70631;50.436;7.826;2023-07-09T06:39:05;99499.94;;;40.09;27.89
81155;BME280;70631;50.436;7.826;2023-07-09T06:41:30;99495.78;;;40.41;27.87
81155;BME280;70631;50.436;7.826;2023-07-09T06:43:57;99485.44;;;40.71;27.45
81155;BME280;70631;50.436;7.826;2023-07-09T06:46:22;99491.09;;;41.00;27.54
81155;BME280;70631;50.436;7.826;2023-07-09T06:48:48;99486.16;;;41.27;27.09
81155;BME280;70631;50.436;7.826;2023-07-09T06:51:13;99488.53;;;41.58;26.80
81155;BME280;70631;50.436;7.826;2023-07-09T06:53:38;99494.09;;;41.99;26.58
81155;BME280;70631;50.436;7.826;2023-07-09T06:56:04;99489.44;;;42.36;26.17
81155;BME280;70631;50.436;7.826;2023-07-09T06:58:32;99491.00;;;42.70;26.05
81155;BME280;70631;50.436;7.826;2023-07-09T07:01:00;99482.25;;;42.96;25.46
81155;BME280;70631;50.436;7.826;2023-07-09T07:03:28;99479.63;;;43.16;25.06
81155;BME280;70631;50.436;7.826;2023-07-09T07:05:54;99479.41;;;43.33;24.85
81155;BME280;70631;50.436;7.826;2023-07-09T07:08:21;99486.88;;;43.41;25.31
81155;BME280;70631;50.436;7.826;2023-07-09T07:10:48;99477.91;;;43.64;25.27
81155;BME280;70631;50.436;7.826;2023-07-09T07:13:14;99481.63;;;43.96;24.52
81155;BME280;70631;50.436;7.826;2023-07-09T07:15:40;99475.47;;;43.90;24.61
81155;BME280;70631;50.436;7.826;2023-07-09T07:18:06;99473.88;;;44.05;23.99
81155;BME280;70631;50.436;7.826;2023-07-09T07:20:32;99477.88;;;44.19;24.43
81155;BME280;70631;50.436;7.826;2023-07-09T07:22:58;99473.72;;;44.45;23.68
81155;BME280;70631;50.436;7.826;2023-07-09T07:25:23;99474.28;;;44.66;23.23
81155;BME280;70631;50.436;7.826;2023-07-09T07:27:49;99461.41;;;44.65;23.26
81155;BME280;70631;50.436;7.826;2023-07-09T07:30:14;99459.59;;;44.89;23.19
81155;BME280;70631;50.436;7.826;2023-07-09T07:32:47;99463.31;;;44.93;22.90
81155;BME280;70631;50.436;7.826;2023-07-09T07:35:14;99462.88;;;45.10;22.46
81155;BME280;70631;50.436;7.826;2023-07-09T07:37:43;99461.88;;;45.18;22.33
81155;BME280;70631;50.436;7.826;2023-07-09T07:40:08;99463.69;;;45.26;22.60
81155;BME280;70631;50.436;7.826;2023-07-09T07:42:34;99465.31;;;45.27;22.53
81155;BME280;70631;50.436;7.826;2023-07-09T07:45:00;99468.88;;;45.24;22.70
81155;BME280;70631;50.436;7.826;2023-07-09T07:47:26;99465.19;;;45.39;22.29
81155;BME280;70631;50.436;7.826;2023-07-09T07:49:52;99466.19;;;45.51;22.54
81155;BME280;70631;50.436;7.826;2023-07-09T07:52:18;99464.38;;;45.58;21.76
81155;BME280;70631;50.436;7.826;2023-07-09T07:54:43;99463.75;;;45.49;21.85
81155;BME280;70631;50.436;7.826;2023-07-09T07:57:08;99459.34;;;45.67;21.79
81155;BME280;70631;50.436;7.826;2023-07-09T07:59:35;99451.53;;;45.99;21.66
81155;BME280;70631;50.436;7.826;2023-07-09T08:02:01;99449.78;;;46.37;21.52
81155;BME280;70631;50.436;7.826;2023-07-09T08:04:26;99455.56;;;46.67;21.49
81155;BME280;70631;50.436;7.826;2023-07-09T08:06:52;99455.41;;;46.83;21.38
81155;BME280;70631;50.436;7.826;2023-07-09T08:09:17;99456.38;;;46.94;20.66
81155;BME280;70631;50.436;7.826;2023-07-09T08:11:43;99449.63;;;47.02;20.38
81155;BME280;70631;50.436;7.826;2023-07-09T08:14:09;99452.47;;;47.02;20.48
81155;BME280;70631;50.436;7.826;2023-07-09T08:16:34;99449.63;;;47.02;20.51
81155;BME280;70631;50.436;7.826;2023-07-09T08:19:00;99448.72;;;47.21;20.93
81155;BME280;70631;50.436;7.826;2023-07-09T08:21:25;99440.72;;;47.27;20.69
81155;BME280;70631;50.436;7.826;2023-07-09T08:23:50;99440.06;;;47.37;20.92
81155;BME280;70631;50.436;7.826;2023-07-09T08:26:15;99442.31;;;47.54;20.08
81155;BME280;70631;50.436;7.826;2023-07-09T08:28:41;99441.13;;;47.55;20.27
81155;BME280;70631;50.436;7.826;2023-07-09T08:31:06;99443.56;;;47.57;20.70
81155;BME280;70631;50.436;7.826;2023-07-09T08:33:31;99434.09;;;47.75;20.06
81155;BME280;70631;50.436;7.826;2023-07-09T08:35:57;99436.84;;;47.72;19.97
81155;BME280;70631;50.436;7.826;2023-07-09T08:38:22;99441.19;;;47.62;20.27
81155;BME280;70631;50.436;7.826;2023-07-09T08:40:57;99430.78;;;47.70;19.93
81155;BME280;70631;50.436;7.826;2023-07-09T08:46:29;99437.63;;;48.06;20.34
81155;BME280;70631;50.436;7.826;2023-07-09T08:48:58;99432.44;;;48.12;20.43
81155;BME280;70631;50.436;7.826;2023-07-09T08:51:33;99430.22;;;48.31;20.10
81155;BME280;70631;50.436;7.826;2023-07-09T08:54:00;99432.78;;;48.47;19.30
81155;BME280;70631;50.436;7.826;2023-07-09T08:56:27;99424.69;;;48.46;19.01
81155;BME280;70631;50.436;7.826;2023-07-09T08:58:55;99429.13;;;48.47;19.66
81155;BME280;70631;50.436;7.826;2023-07-09T09:01:26;99423.03;;;48.38;19.57
81155;BME280;70631;50.436;7.826;2023-07-09T09:04:03;99426.25;;;48.40;19.62
81155;BME280;70631;50.436;7.826;2023-07-09T09:06:31;99419.03;;;48.46;18.63
81155;BME280;70631;50.436;7.826;2023-07-09T09:09:15;99421.94;;;48.12;19.52
81155;BME280;70631;50.436;7.826;2023-07-09T09:11:57;99416.44;;;47.86;19.97
81155;BME280;70631;50.436;7.826;2023-07-09T09:14:29;99416.25;;;48.08;19.50
81155;BME280;70631;50.436;7.826;2023-07-09T09:16:56;99416.06;;;48.28;18.96
81155;BME280;70631;50.436;7.826;2023-07-09T09:19:55;99411.50;;;48.16;19.49
81155;BME280;70631;50.436;7.826;2023-07-09T09:22:36;99414.16;;;47.98;19.65
81155;BME280;70631;50.436;7.826;2023-07-09T09:27:36;99410.72;;;48.19;19.50
81155;BME280;70631;50.436;7.826;2023-07-09T09:30:04;99407.16;;;48.26;18.96
81155;BME280;70631;50.436;7.826;2023-07-09T09:32:39;99401.53;;;48.29;18.71
81155;BME280;70631;50.436;7.826;2023-07-09T09:35:16;99393.25;;;48.10;19.17
81155;BME280;70631;50.436;7.826;2023-07-09T09:37:51;99388.91;;;47.79;18.63
81155;BME280;70631;50.436;7.826;2023-07-09T09:40:18;99393.88;;;47.52;19.17
81155;BME280;70631;50.436;7.826;2023-07-09T09:42:43;99386.03;;;47.38;19.36
81155;BME280;70631;50.436;7.826;2023-07-09T09:45:13;99398.97;;;47.43;19.43
81155;BME280;70631;50.436;7.826;2023-07-09T09:47:40;99400.88;;;47.65;19.47
81155;BME280;70631;50.436;7.826;2023-07-09T09:50:05;99394.72;;;47.93;19.48
81155;BME280;70631;50.436;7.826;2023-07-09T09:52:31;99391.56;;;48.02;18.94
81155;BME280;70631;50.436;7.826;2023-07-09T09:55:10;99393.66;;;47.71;19.19
81155;BME280;70631;50.436;7.826;2023-07-09T09:57:37;99383.13;;;47.68;18.93
81155;BME280;70631;50.436;7.826;2023-07-09T10:00:02;99386.59;;;47.88;18.68
81155;BME280;70631;50.436;7.826;2023-07-09T10:02:29;99394.38;;;47.61;18.77
81155;BME280;70631;50.436;7.826;2023-07-09T10:04:56;99392.75;;;47.60;18.99
81155;BME280;70631;50.436;7.826;2023-07-09T10:07:28;99386.91;;;47.80;18.66
81155;BME280;70631;50.436;7.826;2023-07-09T10:09:55;99375.22;;;47.85;18.78
81155;BME280;70631;50.436;7.826;2023-07-09T10:15:23;99384.00;;;47.72;18.56
81155;BME280;70631;50.436;7.826;2023-07-09T10:20:35;99375.50;;;47.05;18.95
81155;BME280;70631;50.436;7.826;2023-07-09T10:23:29;99371.25;;;47.18;19.51
81155;BME280;70631;50.436;7.826;2023-07-09T10:26:15;99355.69;;;47.32;19.60
81155;BME280;70631;50.436;7.826;2023-07-09T10:28:57;99351.13;;;47.54;19.34
81155;BME280;70631;50.436;7.826;2023-07-09T10:31:40;99346.72;;;47.97;19.07
81155;BME280;70631;50.436;7.826;2023-07-09T10:34:31;99346.94;;;47.81;17.63
81155;BME280;70631;50.436;7.826;2023-07-09T10:39:38;99354.97;;;47.75;17.41
81155;BME280;70631;50.436;7.826;2023-07-09T10:42:14;99346.63;;;47.86;18.14
81155;BME280;70631;50.436;7.826;2023-07-09T10:44:41;99350.66;;;47.89;17.81
81155;BME280;70631;50.436;7.826;2023-07-09T10:47:22;99349.34;;;47.42;17.64
81155;BME280;70631;50.436;7.826;2023-07-09T10:49:51;99340.97;;;47.49;16.96
81155;BME280;70631;50.436;7.826;2023-07-09T10:52:25;99345.09;;;47.22;16.05
81155;BME280;70631;50.436;7.826;2023-07-09T10:58:19;99348.16;;;47.09;16.63
81155;BME280;70631;50.436;7.826;2023-07-09T11:00:47;99347.09;;;47.21;16.57
81155;BME280;70631;50.436;7.826;2023-07-09T11:03:18;99343.31;;;47.10;16.97
81155;BME280;70631;50.436;7.826;2023-07-09T11:05:45;99341.06;;;47.23;17.39
81155;BME280;70631;50.436;7.826;2023-07-09T11:08:25;99334.22;;;47.57;17.21
81155;BME280;70631;50.436;7.826;2023-07-09T11:10:56;99336.28;;;47.64;16.04
81155;BME280;70631;50.436;7.826;2023-07-09T11:13:53;99318.75;;;47.47;16.14
81155;BME280;70631;50.436;7.826;2023-07-09T11:16:29;99326.84;;;47.86;16.91
81155;BME280;70631;50.436;7.826;2023-07-09T11:19:01;99330.63;;;48.04;15.90
81155;BME280;70631;50.436;7.826;2023-07-09T11:21:27;99320.16;;;47.64;16.25
81155;BME280;70631;50.436;7.826;2023-07-09T11:23:54;99319.38;;;45.94;17.83
81155;BME280;70631;50.436;7.826;2023-07-09T11:26:31;99320.00;;;45.38;17.70
81155;BME280;70631;50.436;7.826;2023-07-09T11:29:16;99317.34;;;45.68;17.37
81155;BME280;70631;50.436;7.826;2023-07-09T11:31:45;99317.44;;;45.98;17.16
81155;BME280;70631;50.436;7.826;2023-07-09T11:36:56;99309.25;;;45.05;17.47
81155;BME280;70631;50.436;7.826;2023-07-09T11:39:39;99305.81;;;44.42;18.32
81155;BME280;70631;50.436;7.826;2023-07-09T11:42:27;99303.28;;;43.42;19.51
81155;BME280;70631;50.436;7.826;2023-07-09T11:45:09;99297.28;;;43.00;19.93
81155;BME280;70631;50.436;7.826;2023-07-09T11:47:42;99296.25;;;42.80;20.46
81155;BME280;70631;50.436;7.826;2023-07-09T11:50:22;99294.00;;;42.58;20.08
81155;BME280;70631;50.436;7.826;2023-07-09T11:52:55;99299.25;;;42.35;20.42
81155;BME280;70631;50.436;7.826;2023-07-09T11:55:26;99294.94;;;41.89;21.21
81155;BME280;70631;50.436;7.826;2023-07-09T11:57:53;99286.56;;;41.56;21.07
81155;BME280;70631;50.436;7.826;2023-07-09T12:00:19;99290.28;;;41.14;21.57
81155;BME280;70631;50.436;7.826;2023-07-09T12:02:44;99285.97;;;40.84;21.55
81155;BME280;70631;50.436;7.826;2023-07-09T12:05:10;99289.97;;;40.95;21.51
81155;BME280;70631;50.436;7.826;2023-07-09T12:07:35;99283.91;;;40.72;22.74
81155;BME280;70631;50.436;7.826;2023-07-09T12:10:03;99285.44;;;40.11;22.79
81155;BME280;70631;50.436;7.826;2023-07-09T12:12:41;99273.38;;;39.42;23.67
81155;BME280;70631;50.436;7.826;2023-07-09T12:15:19;99274.19;;;39.43;23.82
81155;BME280;70631;50.436;7.826;2023-07-09T12:17:53;99270.28;;;39.82;23.45
81155;BME280;70631;50.436;7.826;2023-07-09T12:20:18;99266.63;;;39.99;23.83
81155;BME280;70631;50.436;7.826;2023-07-09T12:22:44;99270.88;;;40.05;23.18
81155;BME280;70631;50.436;7.826;2023-07-09T12:25:19;99270.16;;;40.17;22.44
81155;BME280;70631;50.436;7.826;2023-07-09T12:27:46;99255.81;;;40.48;21.55
81155;BME280;70631;50.436;7.826;2023-07-09T12:30:11;99263.81;;;40.58;21.09
81155;BME280;70631;50.436;7.826;2023-07-09T12:32:48;99271.91;;;40.51;21.82
81155;BME280;70631;50.436;7.826;2023-07-09T12:35:15;99266.06;;;40.65;20.52
81155;BME280;70631;50.436;7.826;2023-07-09T12:37:43;99259.03;;;40.58;20.99
81155;BME280;70631;50.436;7.826;2023-07-09T12:40:29;99251.53;;;40.50;21.62
81155;BME280;70631;50.436;7.826;2023-07-09T12:42:56;99254.91;;;40.77;21.37
81155;BME280;70631;50.436;7.826;2023-07-09T12:45:23;99254.66;;;40.90;21.67
81155;BME280;70631;50.436;7.826;2023-07-09T12:47:49;99247.09;;;40.91;20.61
81155;BME280;70631;50.436;7.826;2023-07-09T12:50:19;99253.13;;;40.81;20.44
81155;BME280;70631;50.436;7.826;2023-07-09T12:52:48;99250.22;;;40.69;20.52
81155;BME280;70631;50.436;7.826;2023-07-09T12:55:25;99243.84;;;40.47;21.38
81155;BME280;70631;50.436;7.826;2023-07-09T12:57:54;99241.81;;;40.56;20.77
81155;BME280;70631;50.436;7.826;2023-07-09T13:00:20;99246.97;;;40.46;20.70
81155;BME280;70631;50.436;7.826;2023-07-09T13:02:53;99242.03;;;40.22;20.90
81155;BME280;70631;50.436;7.826;2023-07-09T13:05:21;99241.53;;;40.20;20.96
81155;BME280;70631;50.436;7.826;2023-07-09T13:07:50;99233.66;;;40.22;21.40
81155;BME280;70631;50.436;7.826;2023-07-09T13:10:26;99236.53;;;40.05;21.50
81155;BME280;70631;50.436;7.826;2023-07-09T13:12:55;99235.19;;;40.11;21.07
81155;BME280;70631;50.436;7.826;2023-07-09T13:17:57;99223.72;;;39.74;20.77
81155;BME280;70631;50.436;7.826;2023-07-09T13:20:22;99212.44;;;39.62;21.01
81155;BME280;70631;50.436;7.826;2023-07-09T13:22:47;99220.63;;;39.67;21.85
81155;BME280;70631;50.436;7.826;2023-07-09T13:25:13;99223.28;;;39.63;21.35
81155;BME280;70631;50.436;7.826;2023-07-09T13:27:38;99219.69;;;39.46;20.98